createdAt,value
2018-07-31T00:01:49.375Z,3.70
2018-07-31T00:06:52.590Z,3.90
2018-07-31T00:11:55.820Z,3.63
2018-07-31T00:16:59.139Z,4.20
2018-07-31T00:22:02.358Z,4.93
2018-07-31T00:27:05.692Z,3.40
2018-07-31T00:32:08.912Z,4.40
2018-07-31T00:37:12.123Z,3.93
2018-07-31T00:42:15.342Z,3.67
2018-07-31T00:47:18.558Z,4.20
2018-07-31T00:52:21.779Z,4.07
2018-07-31T00:57:24.996Z,4.00
2018-07-31T01:02:28.207Z,4.10
2018-07-31T01:07:31.431Z,4.07
2018-07-31T01:12:34.635Z,3.83
2018-07-31T01:17:37.878Z,4.43
2018-07-31T01:22:41.115Z,4.17
2018-07-31T01:27:44.363Z,5.10
2018-07-31T01:32:47.586Z,4.50
2018-07-31T01:37:50.795Z,4.20
2018-07-31T01:42:54.019Z,4.50
2018-07-31T01:48:16.194Z,3.87
2018-07-31T01:53:19.400Z,3.60
2018-07-31T01:58:22.598Z,3.60
2018-07-31T02:03:25.803Z,3.33
2018-07-31T02:08:28.994Z,5.10
2018-07-31T02:13:32.196Z,4.17
2018-07-31T02:18:35.428Z,3.43
2018-07-31T02:23:38.635Z,4.47
2018-07-31T02:28:41.962Z,3.90
2018-07-31T02:33:45.043Z,4.50
2018-07-31T02:38:48.247Z,4.60
2018-07-31T02:43:51.547Z,3.83
2018-07-31T02:48:54.733Z,4.33
2018-07-31T02:53:57.937Z,3.90
2018-07-31T02:59:01.119Z,3.87
2018-07-31T03:04:04.328Z,4.00
2018-07-31T03:09:08.215Z,4.03
2018-07-31T03:14:11.415Z,4.30
2018-07-31T03:19:14.636Z,4.47
2018-07-31T03:24:17.838Z,3.90
2018-07-31T03:29:21.580Z,3.60
2018-07-31T03:34:25.205Z,4.13
2018-07-31T03:39:28.403Z,3.30
2018-07-31T03:44:31.603Z,4.20
2018-07-31T03:49:34.798Z,4.00
2018-07-31T03:54:37.986Z,3.50
2018-07-31T03:59:41.173Z,4.13
2018-07-31T04:04:44.398Z,4.83
2018-07-31T04:09:47.547Z,4.07
2018-07-31T04:14:50.743Z,4.10
2018-07-31T04:19:53.951Z,4.40
2018-07-31T04:24:57.150Z,4.23
2018-07-31T04:30:00.375Z,4.27
2018-07-31T04:35:03.826Z,4.13
2018-07-31T04:40:07.016Z,4.10
2018-07-31T04:45:11.262Z,4.10
2018-07-31T04:50:14.461Z,4.30
2018-07-31T04:55:17.648Z,4.10
2018-07-31T05:00:20.923Z,4.80
2018-07-31T05:05:24.121Z,4.10
2018-07-31T05:10:27.304Z,4.43
2018-07-31T05:15:30.498Z,4.00
2018-07-31T05:20:33.705Z,4.37
2018-07-31T05:25:36.908Z,4.00
2018-07-31T05:30:40.103Z,4.30
2018-07-31T05:35:43.308Z,3.87
2018-07-31T05:40:46.499Z,4.00
2018-07-31T05:45:49.698Z,4.50
2018-07-31T05:50:52.898Z,3.50
2018-07-31T05:55:56.082Z,4.23
2018-07-31T06:00:59.287Z,4.37
2018-07-31T06:06:02.470Z,4.47
2018-07-31T06:11:05.707Z,4.63
2018-07-31T06:16:09.799Z,4.40
2018-07-31T06:21:13.023Z,4.60
2018-07-31T06:26:16.227Z,4.77
2018-07-31T06:31:19.410Z,4.13
2018-07-31T06:36:22.610Z,4.70
2018-07-31T06:41:25.807Z,4.53
2018-07-31T06:46:29.012Z,4.23
2018-07-31T06:51:32.371Z,4.17
2018-07-31T06:56:35.571Z,4.30
2018-07-31T07:01:38.771Z,4.07
2018-07-31T07:06:41.987Z,4.47
2018-07-31T07:11:45.190Z,4.40
2018-07-31T07:16:48.428Z,4.10
2018-07-31T07:21:51.623Z,4.07
2018-07-31T07:26:54.835Z,4.23
2018-07-31T07:31:58.044Z,4.47
2018-07-31T07:37:01.248Z,4.97
2018-07-31T07:42:04.448Z,3.60
2018-07-31T07:47:07.648Z,3.87
2018-07-31T07:52:10.659Z,4.53
2018-07-31T07:57:13.867Z,3.53
2018-07-31T08:02:17.068Z,4.07
2018-07-31T08:07:20.262Z,3.23
2018-07-31T08:12:23.471Z,4.13
2018-07-31T08:17:26.708Z,4.23
2018-07-31T08:22:29.934Z,4.47
2018-07-31T08:27:33.211Z,3.73
2018-07-31T08:32:36.395Z,4.50
2018-07-31T08:37:39.600Z,4.03
2018-07-31T08:42:42.799Z,4.33
2018-07-31T08:47:46.004Z,4.20
2018-07-31T08:52:49.223Z,3.67
2018-07-31T08:57:52.426Z,4.67
2018-07-31T09:02:55.639Z,4.20
2018-07-31T09:07:58.834Z,4.30
2018-07-31T09:13:01.987Z,4.20
2018-07-31T09:18:05.162Z,3.67
2018-07-31T09:23:08.447Z,3.77
2018-07-31T09:28:11.659Z,3.17
2018-07-31T09:33:14.823Z,4.30
2018-07-31T09:38:17.970Z,3.37
2018-07-31T09:43:21.135Z,4.40
2018-07-31T09:48:24.303Z,3.97
2018-07-31T09:53:27.468Z,4.10
2018-07-31T09:58:30.659Z,3.50
2018-07-31T10:03:33.835Z,4.00
2018-07-31T10:08:37.010Z,3.57
2018-07-31T10:13:40.154Z,3.67
2018-07-31T10:18:43.331Z,3.73
2018-07-31T10:23:46.474Z,3.50
2018-07-31T10:28:49.955Z,3.50
2018-07-31T10:33:53.139Z,3.57
2018-07-31T10:38:56.295Z,4.10
2018-07-31T10:43:59.517Z,3.50
2018-07-31T10:49:02.635Z,3.90
2018-07-31T10:54:05.786Z,2.90
2018-07-31T10:59:08.943Z,2.70
2018-07-31T11:04:12.158Z,3.70
2018-07-31T11:09:15.287Z,3.23
2018-07-31T11:14:18.470Z,3.30
2018-07-31T11:19:21.724Z,3.27
2018-07-31T11:24:24.925Z,3.37
2018-07-31T11:29:28.106Z,3.37
2018-07-31T11:34:31.299Z,2.60
2018-07-31T11:39:34.489Z,3.27
2018-07-31T11:44:37.676Z,2.70
2018-07-31T11:49:40.908Z,2.77
2018-07-31T11:54:44.052Z,2.77
2018-07-31T11:59:47.257Z,2.47
2018-07-31T12:04:50.435Z,2.57
2018-07-31T12:09:53.627Z,2.00
2018-07-31T12:14:56.821Z,2.70
2018-07-31T12:20:00.016Z,2.60
2018-07-31T12:25:03.226Z,2.70
2018-07-31T12:30:08.736Z,3.07
2018-07-31T12:35:12.161Z,2.20
2018-07-31T12:40:15.347Z,2.00
2018-07-31T12:45:18.535Z,2.47
2018-07-31T12:50:21.722Z,2.10
2018-07-31T12:55:24.918Z,2.13
2018-07-31T13:00:28.115Z,2.30
2018-07-31T13:05:31.335Z,2.37
2018-07-31T13:10:34.558Z,2.30
2018-07-31T13:15:37.754Z,2.03
2018-07-31T13:20:41.019Z,2.60
2018-07-31T13:25:44.218Z,2.73
2018-07-31T13:30:47.442Z,2.27
2018-07-31T13:35:50.611Z,2.53
2018-07-31T13:40:53.812Z,2.40
2018-07-31T13:45:57.038Z,2.47
2018-07-31T13:51:00.223Z,2.30
2018-07-31T13:56:03.423Z,2.77
2018-07-31T14:01:06.627Z,3.83
2018-07-31T14:06:09.823Z,2.57
2018-07-31T14:11:13.015Z,2.63
2018-07-31T14:16:16.219Z,1.93
2018-07-31T14:21:19.436Z,2.37
2018-07-31T14:26:22.651Z,2.00
2018-07-31T14:31:25.856Z,2.60
2018-07-31T14:36:29.064Z,1.33
2018-07-31T14:41:32.345Z,2.57
2018-07-31T14:46:35.727Z,2.00
2018-07-31T14:51:38.911Z,2.07
2018-07-31T14:56:42.096Z,1.87
2018-07-31T15:01:45.287Z,2.10
2018-07-31T15:06:48.471Z,1.70
2018-07-31T15:11:51.666Z,2.50
2018-07-31T15:16:55.087Z,2.00
2018-07-31T15:21:58.276Z,1.83
2018-07-31T15:27:01.487Z,2.10
2018-07-31T15:32:04.707Z,1.73
2018-07-31T15:37:07.906Z,2.17
2018-07-31T15:42:11.113Z,1.90
2018-07-31T15:47:14.311Z,2.07
2018-07-31T15:52:17.515Z,2.13
2018-07-31T15:57:20.878Z,2.20
2018-07-31T16:02:23.830Z,1.60
2018-07-31T16:07:27.031Z,2.10
2018-07-31T16:12:30.218Z,2.23
2018-07-31T16:17:33.436Z,2.10
2018-07-31T16:22:36.763Z,1.70
2018-07-31T16:27:40.128Z,1.70
2018-07-31T16:32:43.327Z,1.67
2018-07-31T16:37:46.535Z,1.63
2018-07-31T16:42:49.719Z,1.67
2018-07-31T16:47:52.918Z,1.70
2018-07-31T16:52:56.104Z,1.87
2018-07-31T16:57:59.306Z,1.83
2018-07-31T17:03:02.507Z,2.00
2018-07-31T17:08:05.698Z,2.00
2018-07-31T17:13:08.894Z,1.97
2018-07-31T17:18:12.123Z,1.80
2018-07-31T17:23:15.322Z,2.43
2018-07-31T17:28:18.527Z,2.00
2018-07-31T17:33:21.746Z,1.80
2018-07-31T17:38:24.939Z,1.37
2018-07-31T17:43:28.143Z,1.70
2018-07-31T17:48:31.397Z,1.90
2018-07-31T17:53:34.543Z,1.80
2018-07-31T17:58:37.742Z,1.77
2018-07-31T18:03:40.986Z,1.73
2018-07-31T18:08:44.131Z,1.77
2018-07-31T18:13:47.319Z,1.47
2018-07-31T18:18:50.547Z,1.57
2018-07-31T18:23:53.792Z,1.40
2018-07-31T18:28:56.939Z,1.63
2018-07-31T18:34:00.134Z,1.73
2018-07-31T18:39:04.723Z,2.47
2018-07-31T18:44:08.167Z,1.70
2018-07-31T18:49:11.363Z,2.17
2018-07-31T18:54:14.547Z,1.40
2018-07-31T18:59:17.747Z,1.90
2018-07-31T19:04:20.963Z,1.83
2018-07-31T19:09:24.176Z,2.10
2018-07-31T19:14:27.363Z,1.50
2018-07-31T19:19:30.858Z,2.00
2018-07-31T19:24:34.059Z,1.90
2018-07-31T19:29:37.359Z,2.37
2018-07-31T19:34:40.563Z,2.53
2018-07-31T19:39:43.555Z,1.80
2018-07-31T19:44:46.744Z,1.80
2018-07-31T19:49:49.941Z,2.10
2018-07-31T19:54:53.680Z,2.07
2018-07-31T19:59:56.811Z,2.00
2018-07-31T20:05:00.012Z,2.00
2018-07-31T20:10:03.228Z,2.27
2018-07-31T20:15:06.631Z,2.00
2018-07-31T20:20:09.807Z,2.00
2018-07-31T20:25:13.007Z,2.13
2018-07-31T20:30:16.195Z,2.20
2018-07-31T20:35:19.395Z,1.83
2018-07-31T20:40:22.583Z,2.40
2018-07-31T20:45:25.771Z,2.77
2018-07-31T20:50:28.961Z,2.27
2018-07-31T20:55:32.160Z,2.73
2018-07-31T21:00:35.636Z,2.30
2018-07-31T21:05:38.822Z,2.70
2018-07-31T21:10:42.024Z,2.10
2018-07-31T21:15:45.227Z,2.10
2018-07-31T21:20:48.440Z,2.53
2018-07-31T21:25:51.634Z,2.50
2018-07-31T21:30:54.834Z,2.33
2018-07-31T21:35:58.032Z,2.33
2018-07-31T21:41:01.236Z,2.10
2018-07-31T21:46:04.439Z,1.83
2018-07-31T21:51:07.639Z,2.13
2018-07-31T21:56:10.832Z,1.90
2018-07-31T22:01:14.072Z,2.57
2018-07-31T22:06:17.226Z,2.30
2018-07-31T22:11:20.419Z,2.00
2018-07-31T22:16:23.611Z,2.33
2018-07-31T22:21:27.004Z,2.10
2018-07-31T22:26:30.207Z,1.63
2018-07-31T22:31:33.411Z,2.10
2018-07-31T22:36:36.611Z,1.93
2018-07-31T22:41:40.044Z,2.40
2018-07-31T22:46:43.231Z,2.27
2018-07-31T22:51:46.423Z,2.03
2018-07-31T22:56:49.615Z,2.53
2018-07-31T23:01:52.800Z,2.20
2018-07-31T23:06:55.995Z,2.00
2018-07-31T23:11:59.183Z,1.70
2018-07-31T23:17:02.390Z,2.07
2018-07-31T23:22:05.591Z,1.90
2018-07-31T23:27:08.787Z,1.80
2018-07-31T23:32:11.988Z,2.50
2018-07-31T23:37:15.196Z,1.60
2018-07-31T23:42:18.476Z,1.67
2018-07-31T23:47:21.682Z,1.90
2018-07-31T23:52:24.943Z,1.57
2018-07-31T23:57:28.134Z,2.00
